createdAt,value
2022-08-02T00:01:36.750Z,100723.30
2022-08-02T00:04:09.486Z,100723.88
2022-08-02T00:06:42.087Z,100723.96
2022-08-02T00:09:15.148Z,100725.92
2022-08-02T00:11:47.627Z,100692.05
2022-08-02T00:14:19.754Z,100724.11
2022-08-02T00:16:52.127Z,100724.31
2022-08-02T00:19:24.903Z,100725.93
2022-08-02T00:21:57.846Z,100723.39
2022-08-02T00:24:31.014Z,100724.33
2022-08-02T00:27:09.156Z,100719.70
2022-08-02T00:29:50.491Z,100725.45
2022-08-02T00:32:26.659Z,100725.60
2022-08-02T00:34:59.627Z,100729.56
2022-08-02T00:37:32.201Z,100732.10
2022-08-02T00:40:09.238Z,100719.90
2022-08-02T00:42:39.940Z,100742.03
2022-08-02T00:45:13.417Z,100739.77
2022-08-02T00:47:45.483Z,100746.58
2022-08-02T00:50:17.808Z,100749.39
2022-08-02T00:52:50.226Z,100748.59
2022-08-02T00:55:31.273Z,100749.83
2022-08-02T00:58:03.826Z,100744.02
2022-08-02T01:00:36.571Z,100749.16
2022-08-02T01:03:09.319Z,100755.52
2022-08-02T01:06:10.061Z,100756.63
2022-08-02T01:08:34.221Z,100755.98
2022-08-02T01:11:06.402Z,100758.33
2022-08-02T01:13:39.431Z,100759.84
2022-08-02T01:16:17.420Z,100761.33
2022-08-02T01:18:54.213Z,100754.50
2022-08-02T01:21:42.392Z,100758.77
2022-08-02T01:24:31.162Z,100761.49
2022-08-02T01:27:13.591Z,100758.27
2022-08-02T01:29:51.932Z,100757.13
2022-08-02T01:32:29.321Z,100753.77
2022-08-02T01:35:04.771Z,100756.20
2022-08-02T01:37:43.413Z,100757.61
2022-08-02T01:40:20.696Z,100758.23
2022-08-02T01:42:57.860Z,100759.04
2022-08-02T01:45:35.051Z,100763.04
2022-08-02T01:48:09.712Z,100761.98
2022-08-02T01:50:44.648Z,100759.36
2022-08-02T01:53:20.185Z,100761.75
2022-08-02T01:55:58.088Z,100760.07
2022-08-02T01:58:36.271Z,100763.23
2022-08-02T02:01:15.211Z,100768.04
2022-08-02T02:03:51.850Z,100768.75
2022-08-02T02:06:26.735Z,100768.48
2022-08-02T02:09:00.938Z,100771.69
2022-08-02T02:12:05.800Z,100772.13
2022-08-02T02:14:29.304Z,100773.88
2022-08-02T02:17:02.320Z,100776.96
2022-08-02T02:19:37.793Z,100772.11
2022-08-02T02:22:10.136Z,100769.11
2022-08-02T02:24:44.046Z,100768.44
2022-08-02T02:27:18.906Z,100765.76
2022-08-02T02:29:53.306Z,100769.55
2022-08-02T02:32:28.794Z,100766.66
2022-08-02T02:35:03.960Z,100766.27
2022-08-02T02:37:39.137Z,100753.81
2022-08-02T02:40:14.523Z,100765.70
2022-08-02T02:42:49.255Z,100767.09
2022-08-02T02:45:23.291Z,100744.00
2022-08-02T02:47:57.122Z,100765.02
2022-08-02T02:50:30.451Z,100770.67
2022-08-02T02:53:03.793Z,100773.95
2022-08-02T02:55:36.240Z,100774.27
2022-08-02T02:58:10.711Z,100777.69
2022-08-02T03:01:02.520Z,100780.05
2022-08-02T03:03:35.467Z,100766.77
2022-08-02T03:06:14.799Z,100793.73
2022-08-02T03:08:47.866Z,100793.33
2022-08-02T03:11:21.127Z,100782.79
2022-08-02T03:13:54.607Z,100787.92
2022-08-02T03:16:28.471Z,100795.89
2022-08-02T03:19:04.382Z,100799.71
2022-08-02T03:21:36.463Z,100799.66
2022-08-02T03:24:09.797Z,100802.48
2022-08-02T03:26:43.389Z,100804.89
2022-08-02T03:29:15.935Z,100805.90
2022-08-02T03:31:49.025Z,100807.60
2022-08-02T03:34:22.023Z,100799.59
2022-08-02T03:36:59.219Z,100811.29
2022-08-02T03:39:33.366Z,100811.46
2022-08-02T03:42:05.965Z,100816.71
2022-08-02T03:44:39.639Z,100806.44
2022-08-02T03:47:12.576Z,100824.23
2022-08-02T03:49:46.262Z,100829.98
2022-08-02T03:52:19.164Z,100834.86
2022-08-02T03:54:51.775Z,100834.59
2022-08-02T03:57:24.361Z,100849.40
2022-08-02T03:59:56.470Z,100852.19
2022-08-02T04:02:30.859Z,100854.75
2022-08-02T04:05:15.063Z,100851.90
2022-08-02T04:08:36.151Z,100862.22
2022-08-02T04:11:01.973Z,100856.23
2022-08-02T04:13:37.250Z,100865.05
2022-08-02T04:16:15.050Z,100867.95
2022-08-02T04:18:57.614Z,100872.11
2022-08-02T04:21:49.922Z,100877.00
2022-08-02T04:24:27.977Z,100879.12
2022-08-02T04:27:19.466Z,100881.20
2022-08-02T04:30:01.473Z,100890.65
2022-08-02T04:32:34.511Z,100893.96
2022-08-02T04:35:25.277Z,100896.52
2022-08-02T04:38:09.783Z,100884.23
2022-08-02T04:40:50.855Z,100899.89
2022-08-02T04:43:23.257Z,100901.45
2022-08-02T04:45:57.136Z,100895.02
2022-08-02T04:48:30.375Z,100907.59
2022-08-02T04:51:03.268Z,100906.46
2022-08-02T04:53:35.681Z,100910.66
2022-08-02T04:56:08.153Z,100915.52
2022-08-02T04:58:41.062Z,100916.71
2022-08-02T05:01:13.492Z,100917.47
2022-08-02T05:03:47.466Z,100920.61
2022-08-02T05:06:21.316Z,100921.98
2022-08-02T05:08:53.935Z,100919.16
2022-08-02T05:11:36.171Z,100928.52
2022-08-02T05:14:12.759Z,100929.91
2022-08-02T05:16:44.926Z,100920.90
2022-08-02T05:19:18.007Z,100932.93
2022-08-02T05:21:50.421Z,100936.86
2022-08-02T05:24:22.748Z,100943.60
2022-08-02T05:26:57.017Z,100943.80
2022-08-02T05:29:31.026Z,100947.83
2022-08-02T05:32:03.416Z,100948.55
2022-08-02T05:34:36.179Z,100948.90
2022-08-02T05:37:09.715Z,100945.44
2022-08-02T05:39:55.702Z,100950.16
2022-08-02T05:42:32.674Z,100950.95
2022-08-02T05:45:05.186Z,100954.34
2022-08-02T05:47:37.940Z,100955.20
2022-08-02T05:50:11.745Z,100950.18
2022-08-02T05:52:58.180Z,100957.23
2022-08-02T05:55:35.513Z,100958.80
2022-08-02T05:58:15.943Z,100959.88
2022-08-02T06:00:50.716Z,100954.73
2022-08-02T06:03:25.877Z,100956.09
2022-08-02T06:06:06.648Z,100962.92
2022-08-02T06:08:47.778Z,100965.53
2022-08-02T06:11:25.017Z,100965.30
2022-08-02T06:13:57.815Z,100973.31
2022-08-02T06:16:33.028Z,100973.72
2022-08-02T06:19:15.811Z,100972.33
2022-08-02T06:22:32.597Z,100977.71
2022-08-02T06:24:46.391Z,100984.95
2022-08-02T06:27:19.719Z,100985.13
2022-08-02T06:29:52.375Z,100983.52
2022-08-02T06:32:24.827Z,100979.84
2022-08-02T06:34:57.222Z,100977.02
2022-08-02T06:37:37.175Z,100980.94
2022-08-02T06:40:20.029Z,100979.38
2022-08-02T06:42:59.521Z,100978.98
2022-08-02T06:45:33.406Z,100980.23
2022-08-02T06:48:06.637Z,100981.58
2022-08-02T06:50:39.878Z,100981.70
2022-08-02T06:53:12.696Z,100981.09
2022-08-02T06:55:44.851Z,100983.83
2022-08-02T06:58:17.417Z,100979.86
2022-08-02T07:00:49.627Z,100981.20
2022-08-02T07:03:21.869Z,100985.39
2022-08-02T07:05:58.855Z,100986.66
2022-08-02T07:08:32.533Z,100981.44
2022-08-02T07:11:04.959Z,100987.33
2022-08-02T07:13:39.903Z,100988.79
2022-08-02T07:16:13.447Z,100984.59
2022-08-02T07:18:45.676Z,100974.30
2022-08-02T07:21:17.800Z,100977.77
2022-08-02T07:24:10.350Z,100980.23
2022-08-02T07:27:08.620Z,100986.81
2022-08-02T07:29:45.100Z,100975.40
2022-08-02T07:32:45.467Z,100980.64
2022-08-02T07:35:19.308Z,100980.47
2022-08-02T07:37:55.256Z,100979.56
2022-08-02T07:40:30.928Z,100976.23
2022-08-02T07:43:04.331Z,100965.08
2022-08-02T07:45:45.683Z,100960.30
2022-08-02T07:48:30.337Z,100963.70
2022-08-02T07:51:03.151Z,100960.64
2022-08-02T07:53:51.214Z,100957.23
2022-08-02T07:56:24.132Z,100957.55
2022-08-02T07:58:56.860Z,100959.20
2022-08-02T08:01:29.132Z,100956.72
2022-08-02T08:04:01.824Z,100958.23
2022-08-02T08:06:34.388Z,100958.98
2022-08-02T08:09:07.034Z,100960.05
2022-08-02T08:11:39.378Z,100956.84
2022-08-02T08:14:16.524Z,100959.52
2022-08-02T08:16:49.335Z,100949.13
2022-08-02T08:19:21.619Z,100950.73
2022-08-02T08:22:14.451Z,100956.71
2022-08-02T08:24:48.231Z,100963.36
2022-08-02T08:27:22.864Z,100964.45
2022-08-02T08:29:55.134Z,100965.40
2022-08-02T08:32:27.924Z,100962.28
2022-08-02T08:35:00.419Z,100965.23
2022-08-02T08:37:36.728Z,100970.30
2022-08-02T08:40:11.405Z,100966.51
2022-08-02T08:42:44.539Z,100963.27
2022-08-02T08:45:18.092Z,100973.92
2022-08-02T08:48:01.104Z,100970.34
2022-08-02T08:50:36.674Z,100968.96
2022-08-02T08:53:12.404Z,100971.37
2022-08-02T08:55:46.658Z,100969.22
2022-08-02T08:58:19.441Z,100970.00
2022-08-02T09:00:51.836Z,100978.15
2022-08-02T09:03:24.313Z,100979.37
2022-08-02T09:06:01.039Z,100972.82
2022-08-02T09:08:33.369Z,100964.53
2022-08-02T09:11:17.662Z,100968.08
2022-08-02T09:13:55.648Z,100971.96
2022-08-02T09:16:36.358Z,100977.04
2022-08-02T09:19:22.449Z,100973.74
2022-08-02T09:22:02.165Z,100965.27
2022-08-02T09:24:45.502Z,100980.35
2022-08-02T09:27:20.501Z,100983.73
2022-08-02T09:30:12.356Z,100987.44
2022-08-02T09:32:50.060Z,100987.97
2022-08-02T09:36:06.717Z,100955.89
2022-08-02T09:38:29.122Z,100985.05
2022-08-02T09:41:02.288Z,100986.59
2022-08-02T09:44:03.131Z,100986.60
2022-08-02T09:46:40.146Z,100983.67
2022-08-02T09:49:14.426Z,100979.95
2022-08-02T09:51:54.616Z,100978.27
2022-08-02T09:54:29.843Z,100973.27
2022-08-02T09:57:03.434Z,100971.14
2022-08-02T09:59:36.062Z,100964.77
2022-08-02T10:02:17.098Z,100970.50
2022-08-02T10:04:53.246Z,100940.39
2022-08-02T10:07:26.725Z,100959.18
2022-08-02T10:09:59.481Z,100953.34
2022-08-02T10:12:32.337Z,100952.58
2022-08-02T10:15:05.874Z,100946.20
2022-08-02T10:17:38.890Z,100939.98
2022-08-02T10:20:13.104Z,100946.83
2022-08-02T10:22:46.947Z,100947.39
2022-08-02T10:25:21.578Z,100943.78
2022-08-02T10:28:05.251Z,100941.48
2022-08-02T10:30:42.136Z,100940.64
2022-08-02T10:33:40.248Z,100948.12
2022-08-02T10:36:14.541Z,100946.22
2022-08-02T10:38:48.661Z,100946.36
2022-08-02T10:41:43.408Z,100942.23
2022-08-02T10:44:27.575Z,100934.78
2022-08-02T10:47:34.770Z,100940.27
2022-08-02T10:50:09.153Z,100935.22
2022-08-02T10:52:43.813Z,100935.61
2022-08-02T10:55:22.178Z,100932.30
2022-08-02T10:58:19.856Z,100929.33
2022-08-02T11:00:52.475Z,100924.89
2022-08-02T11:03:45.953Z,100920.59
2022-08-02T11:06:25.532Z,100910.02
2022-08-02T11:09:33.329Z,100922.23
2022-08-02T11:12:08.391Z,100926.60
2022-08-02T11:14:40.165Z,100924.09
2022-08-02T11:17:14.901Z,100924.58
2022-08-02T11:19:59.027Z,100923.80
2022-08-02T11:22:31.343Z,100920.77
2022-08-02T11:26:01.078Z,100917.60
2022-08-02T11:28:26.737Z,100917.60
2022-08-02T11:31:03.249Z,100914.68
2022-08-02T11:33:37.326Z,100915.40
2022-08-02T11:36:10.213Z,100922.31
2022-08-02T11:38:42.675Z,100922.61
2022-08-02T11:41:46.692Z,100924.56
2022-08-02T11:44:13.887Z,100929.70
2022-08-02T11:46:46.492Z,100932.15
2022-08-02T11:49:20.293Z,100928.71
2022-08-02T11:51:58.579Z,100928.16
2022-08-02T11:54:35.332Z,100923.66
2022-08-02T11:57:20.648Z,100924.86
2022-08-02T11:59:55.924Z,100931.09
2022-08-02T12:02:28.891Z,100918.56
2022-08-02T12:05:03.506Z,100921.27
2022-08-02T12:07:45.772Z,100920.96
2022-08-02T12:10:21.095Z,100917.58
2022-08-02T12:12:54.996Z,100916.85
2022-08-02T12:15:41.768Z,100922.44
2022-08-02T12:18:33.370Z,100922.09
2022-08-02T12:21:23.248Z,100920.10
2022-08-02T12:24:00.662Z,100914.68
2022-08-02T12:26:42.506Z,100922.72
2022-08-02T12:29:15.799Z,100912.62
2022-08-02T12:32:09.093Z,100899.29
2022-08-02T12:34:41.359Z,100911.59
2022-08-02T12:37:13.859Z,100911.83
2022-08-02T12:39:50.074Z,100913.34
2022-08-02T12:42:22.492Z,100916.77
2022-08-02T12:45:00.089Z,100912.69
2022-08-02T12:47:36.026Z,100910.27
2022-08-02T12:50:20.913Z,100906.48
2022-08-02T12:53:03.572Z,100908.81
2022-08-02T12:56:01.845Z,100906.59
2022-08-02T12:58:47.872Z,100898.46
2022-08-02T13:01:25.189Z,100894.92
2022-08-02T13:04:10.326Z,100890.81
2022-08-02T13:06:45.842Z,100894.55
2022-08-02T13:09:19.502Z,100897.41
2022-08-02T13:11:51.725Z,100890.43
2022-08-02T13:14:23.879Z,100888.19
2022-08-02T13:16:56.346Z,100889.58
2022-08-02T13:19:28.503Z,100888.61
2022-08-02T13:22:04.157Z,100886.25
2022-08-02T13:24:40.174Z,100880.08
2022-08-02T13:27:28.815Z,100873.73
2022-08-02T13:30:01.433Z,100875.89
2022-08-02T13:32:34.057Z,100872.98
2022-08-02T13:35:06.919Z,100869.23
2022-08-02T13:37:51.091Z,100865.64
2022-08-02T13:40:24.318Z,100838.60
2022-08-02T13:42:57.880Z,100861.91
2022-08-02T13:45:29.961Z,100861.59
2022-08-02T13:48:03.718Z,100857.53
2022-08-02T13:50:38.584Z,100861.65
2022-08-02T13:53:10.954Z,100858.92
2022-08-02T13:55:43.546Z,100859.73
2022-08-02T13:58:16.113Z,100849.34
2022-08-02T14:00:48.612Z,100858.97
2022-08-02T14:03:20.791Z,100855.29
2022-08-02T14:05:52.963Z,100855.43
2022-08-02T14:08:25.170Z,100852.98
2022-08-02T14:10:57.740Z,100851.50
2022-08-02T14:13:30.050Z,100841.80
2022-08-02T14:16:09.173Z,100834.97
2022-08-02T14:18:41.727Z,100845.95
2022-08-02T14:21:13.827Z,100836.11
2022-08-02T14:23:50.830Z,100839.48
2022-08-02T14:26:27.482Z,100840.23
2022-08-02T14:29:01.146Z,100830.73
2022-08-02T14:31:33.442Z,100828.61
2022-08-02T14:34:05.877Z,100826.87
2022-08-02T14:36:39.772Z,100832.81
2022-08-02T14:39:12.544Z,100822.73
2022-08-02T14:41:58.887Z,100821.17
2022-08-02T14:44:33.557Z,100819.17
2022-08-02T14:47:06.970Z,100816.24
2022-08-02T14:49:41.836Z,100817.45
2022-08-02T14:52:15.837Z,100818.17
2022-08-02T14:54:48.488Z,100816.15
2022-08-02T14:57:20.722Z,100819.80
2022-08-02T14:59:53.106Z,100816.64
2022-08-02T15:02:25.692Z,100819.45
2022-08-02T15:04:58.674Z,100814.44
2022-08-02T15:07:31.033Z,100811.91
2022-08-02T15:10:03.097Z,100782.98
2022-08-02T15:12:35.492Z,100810.27
2022-08-02T15:15:09.227Z,100808.39
2022-08-02T15:17:42.092Z,100811.44
2022-08-02T15:20:24.490Z,100807.70
2022-08-02T15:22:58.412Z,100810.02
2022-08-02T15:25:31.404Z,100808.89
2022-08-02T15:28:06.893Z,100807.14
2022-08-02T15:30:40.170Z,100805.79
2022-08-02T15:33:12.711Z,100799.24
2022-08-02T15:35:45.091Z,100803.21
2022-08-02T15:38:17.823Z,100803.13
2022-08-02T15:40:50.304Z,100801.30
2022-08-02T15:43:22.713Z,100787.45
2022-08-02T15:45:54.862Z,100792.97
2022-08-02T15:48:27.347Z,100787.78
2022-08-02T15:50:59.690Z,100780.79
2022-08-02T15:53:32.090Z,100777.55
2022-08-02T15:56:09.758Z,100775.59
2022-08-02T15:58:44.837Z,100775.73
2022-08-02T16:01:18.741Z,100779.21
2022-08-02T16:03:51.102Z,100773.92
2022-08-02T16:06:23.374Z,100770.69
2022-08-02T16:08:57.483Z,100770.15
2022-08-02T16:11:29.937Z,100768.81
2022-08-02T16:14:02.269Z,100774.49
2022-08-02T16:16:36.394Z,100775.04
2022-08-02T16:19:30.394Z,100774.02
2022-08-02T16:22:01.993Z,100773.02
2022-08-02T16:24:34.177Z,100772.83
2022-08-02T16:27:08.500Z,100769.64
2022-08-02T16:29:41.000Z,100777.23
2022-08-02T16:32:16.845Z,100772.14
2022-08-02T16:35:07.451Z,100774.55
2022-08-02T16:37:51.605Z,100773.32
2022-08-02T16:40:25.463Z,100778.42
2022-08-02T16:42:57.746Z,100776.77
2022-08-02T16:45:32.535Z,100770.13
2022-08-02T16:48:07.021Z,100786.89
2022-08-02T16:50:41.591Z,100769.52
2022-08-02T16:53:34.134Z,100775.45
2022-08-02T16:56:09.805Z,100782.61
2022-08-02T16:58:45.020Z,100782.19
2022-08-02T17:01:27.247Z,100781.04
2022-08-02T17:04:00.292Z,100776.57
2022-08-02T17:06:32.927Z,100775.95
2022-08-02T17:09:05.580Z,100774.21
2022-08-02T17:11:45.378Z,100779.50
2022-08-02T17:14:19.149Z,100785.84
2022-08-02T17:16:52.786Z,100780.14
2022-08-02T17:19:25.224Z,100779.23
2022-08-02T17:21:57.420Z,100777.27
2022-08-02T17:24:29.820Z,100780.17
2022-08-02T17:27:03.470Z,100778.48
2022-08-02T17:29:37.526Z,100783.94
2022-08-02T17:32:18.687Z,100781.88
2022-08-02T17:34:59.839Z,100781.67
2022-08-02T17:37:33.060Z,100782.00
2022-08-02T17:40:10.393Z,100783.02
2022-08-02T17:42:42.604Z,100782.84
2022-08-02T17:45:16.457Z,100782.70
2022-08-02T17:48:03.961Z,100775.98
2022-08-02T17:50:38.358Z,100777.50
2022-08-02T17:53:10.672Z,100773.20
2022-08-02T17:55:44.942Z,100775.50
2022-08-02T17:58:23.414Z,100773.45
2022-08-02T18:01:23.540Z,100773.52
2022-08-02T18:03:56.904Z,100764.09
2022-08-02T18:06:30.413Z,100771.31
2022-08-02T18:09:03.384Z,100783.95
2022-08-02T18:11:52.524Z,100776.63
2022-08-02T18:14:26.422Z,100789.02
2022-08-02T18:16:59.072Z,100794.48
2022-08-02T18:19:42.137Z,100794.09
2022-08-02T18:22:15.591Z,100790.71
2022-08-02T18:24:48.326Z,100789.98
2022-08-02T18:27:22.343Z,100792.13
2022-08-02T18:30:00.438Z,100794.98
2022-08-02T18:33:55.358Z,100797.50
2022-08-02T18:35:31.295Z,100800.16
2022-08-02T18:38:11.037Z,100800.08
2022-08-02T18:40:45.052Z,100802.93
2022-08-02T18:43:25.447Z,100804.59
2022-08-02T18:46:06.787Z,100805.64
2022-08-02T18:48:48.861Z,100807.64
2022-08-02T18:51:23.354Z,100807.20
2022-08-02T18:53:57.157Z,100797.39
2022-08-02T18:56:29.631Z,100813.45
2022-08-02T18:59:07.482Z,100816.67
2022-08-02T19:01:46.846Z,100818.74
2022-08-02T19:04:27.013Z,100819.77
2022-08-02T19:07:07.634Z,100818.71
2022-08-02T19:09:41.118Z,100823.63
2022-08-02T19:12:13.962Z,100825.35
2022-08-02T19:14:48.315Z,100818.05
2022-08-02T19:17:54.821Z,100821.08
2022-08-02T19:20:19.560Z,100819.49
2022-08-02T19:22:53.538Z,100821.84
2022-08-02T19:25:27.840Z,100823.86
2022-08-02T19:28:01.015Z,100808.02
2022-08-02T19:30:34.942Z,100830.41
2022-08-02T19:33:09.546Z,100827.23
2022-08-02T19:36:01.651Z,100824.79
2022-08-02T19:38:38.553Z,100818.24
2022-08-02T19:41:15.900Z,100821.29
2022-08-02T19:44:23.897Z,100823.51
2022-08-02T19:46:41.647Z,100819.47
2022-08-02T19:52:10.358Z,100823.45
2022-08-02T19:54:57.884Z,100819.20
2022-08-02T19:57:34.615Z,100819.27
2022-08-02T20:00:11.487Z,100817.45
2022-08-02T20:02:48.945Z,100817.59
2022-08-02T20:05:23.771Z,100818.31
2022-08-02T20:07:57.071Z,100822.85
2022-08-02T20:10:30.348Z,100822.14
2022-08-02T20:13:05.994Z,100819.60
2022-08-02T20:15:55.813Z,100825.92
2022-08-02T20:18:30.716Z,100821.40
2022-08-02T20:21:03.212Z,100803.98
2022-08-02T20:23:35.383Z,100820.92
2022-08-02T20:26:09.124Z,100821.01
2022-08-02T20:28:41.772Z,100821.80
2022-08-02T20:31:13.961Z,100818.70
2022-08-02T20:33:55.540Z,100821.73
2022-08-02T20:36:39.753Z,100817.23
2022-08-02T20:39:11.922Z,100822.45
2022-08-02T20:41:45.974Z,100823.86
2022-08-02T20:44:30.930Z,100821.52
2022-08-02T20:47:04.682Z,100819.77
2022-08-02T20:49:57.021Z,100818.74
2022-08-02T20:52:29.500Z,100815.45
2022-08-02T20:55:02.986Z,100815.35
2022-08-02T20:57:59.878Z,100815.06
2022-08-02T21:00:29.252Z,100809.48
2022-08-02T21:03:02.678Z,100809.48
2022-08-02T21:05:43.539Z,100816.15
2022-08-02T21:08:26.971Z,100806.77
2022-08-02T21:10:59.277Z,100820.77
2022-08-02T21:13:31.690Z,100820.15
2022-08-02T21:21:50.933Z,100818.38
2022-08-02T21:24:24.680Z,100819.74
2022-08-02T21:26:57.222Z,100816.68
2022-08-02T21:29:29.661Z,100821.36
2022-08-02T21:32:05.912Z,100822.05
2022-08-02T21:34:39.587Z,100823.13
2022-08-02T21:37:11.858Z,100823.42
2022-08-02T21:39:49.843Z,100824.63
2022-08-02T21:42:23.547Z,100826.43
2022-08-02T21:44:56.403Z,100830.37
2022-08-02T21:47:30.954Z,100830.02
2022-08-02T21:50:09.648Z,100827.98
2022-08-02T21:52:52.190Z,100828.60
2022-08-02T21:56:00.134Z,100831.47
2022-08-02T21:58:20.078Z,100829.95
2022-08-02T22:00:53.902Z,100830.48
2022-08-02T22:03:26.690Z,100834.41
2022-08-02T22:06:01.989Z,100836.45
2022-08-02T22:08:37.186Z,100835.41
2022-08-02T22:11:16.995Z,100835.90
2022-08-02T22:13:49.695Z,100832.23
2022-08-02T22:16:23.084Z,100822.10
2022-08-02T22:19:00.182Z,100833.37
2022-08-02T22:21:46.682Z,100835.23
2022-08-02T22:24:29.686Z,100839.14
2022-08-02T22:27:03.102Z,100844.33
2022-08-02T22:29:35.268Z,100846.63
2022-08-02T22:32:07.842Z,100839.75
2022-08-02T22:34:51.743Z,100849.30
2022-08-02T22:38:17.694Z,100836.04
2022-08-02T22:40:17.002Z,100852.11
2022-08-02T22:42:49.622Z,100851.52
2022-08-02T22:45:22.291Z,100853.97
2022-08-02T22:47:54.423Z,100852.52
2022-08-02T22:50:28.443Z,100852.65
2022-08-02T22:53:02.919Z,100853.27
2022-08-02T22:55:36.023Z,100857.08
2022-08-02T22:58:14.102Z,100855.87
2022-08-02T22:58:53.231Z,100822.24
2022-08-02T22:59:02.440Z,100812.92
2022-08-02T22:59:12.742Z,100822.63
2022-08-02T23:00:51.750Z,100856.45
2022-08-02T23:03:24.225Z,100856.00
2022-08-02T23:05:56.605Z,100858.30
2022-08-02T23:08:28.846Z,100849.16
2022-08-02T23:11:01.002Z,100861.71
2022-08-02T23:13:34.117Z,100847.92
2022-08-02T23:16:24.527Z,100868.77
2022-08-02T23:19:22.940Z,100865.94
2022-08-02T23:22:01.647Z,100865.15
2022-08-02T23:24:35.423Z,100863.94
2022-08-02T23:27:07.496Z,100861.86
2022-08-02T23:29:39.568Z,100862.85
2022-08-02T23:32:11.772Z,100860.27
2022-08-02T23:34:44.233Z,100862.81
2022-08-02T23:37:16.436Z,100858.61
2022-08-02T23:39:48.971Z,100859.02
2022-08-02T23:42:21.115Z,100844.92
2022-08-02T23:44:53.270Z,100843.44
2022-08-02T23:47:26.182Z,100851.55
2022-08-02T23:49:59.432Z,100846.95
2022-08-02T23:52:32.102Z,100836.13
2022-08-02T23:55:05.546Z,100816.55
2022-08-02T23:57:37.842Z,100845.10
